createdAt,value
2019-03-13T00:00:46.565Z,81.03
2019-03-13T00:03:15.151Z,80.53
2019-03-13T00:05:43.839Z,83.77
2019-03-13T00:08:12.287Z,80.03
2019-03-13T00:10:40.993Z,82.40
2019-03-13T00:13:09.682Z,80.80
2019-03-13T00:15:38.494Z,79.60
2019-03-13T00:18:07.184Z,79.70
2019-03-13T00:20:35.747Z,80.40
2019-03-13T00:23:04.401Z,81.67
2019-03-13T00:25:33.023Z,79.20
2019-03-13T00:28:01.653Z,81.53
2019-03-13T00:30:30.313Z,80.37
2019-03-13T00:32:59.031Z,85.47
2019-03-13T00:35:27.729Z,85.20
2019-03-13T00:37:56.421Z,86.33
2019-03-13T00:40:25.877Z,82.60
2019-03-13T00:42:54.511Z,83.37
2019-03-13T00:45:23.172Z,82.77
2019-03-13T00:47:51.820Z,83.13
2019-03-13T00:50:25.948Z,83.37
2019-03-13T00:52:54.634Z,84.33
2019-03-13T00:55:23.357Z,84.33
2019-03-13T00:57:52.041Z,83.07
2019-03-13T01:00:25.082Z,80.37
2019-03-13T01:02:54.907Z,78.90
2019-03-13T01:05:25.093Z,79.20
2019-03-13T01:07:53.693Z,80.43
2019-03-13T01:10:22.249Z,79.40
2019-03-13T01:12:50.555Z,79.43
2019-03-13T01:15:19.290Z,78.50
2019-03-13T01:17:47.836Z,78.33
2019-03-13T01:20:16.525Z,80.97
2019-03-13T01:22:44.870Z,78.70
2019-03-13T01:25:13.487Z,77.90
2019-03-13T01:27:41.799Z,78.87
2019-03-13T01:30:12.621Z,78.63
2019-03-13T01:32:45.796Z,79.37
2019-03-13T01:35:15.993Z,77.73
2019-03-13T01:37:44.654Z,80.43
2019-03-13T01:40:13.209Z,78.87
2019-03-13T01:42:42.624Z,79.03
2019-03-13T01:45:11.502Z,78.50
2019-03-13T01:47:40.047Z,79.50
2019-03-13T01:50:11.226Z,78.80
2019-03-13T01:52:39.818Z,80.50
2019-03-13T01:55:09.736Z,80.53
2019-03-13T01:57:38.286Z,79.00
2019-03-13T02:00:12.602Z,79.43
2019-03-13T02:02:41.305Z,80.97
2019-03-13T02:05:09.855Z,80.77
2019-03-13T02:07:38.518Z,80.17
2019-03-13T02:10:09.741Z,80.93
2019-03-13T02:12:38.292Z,79.33
2019-03-13T02:15:09.737Z,81.17
2019-03-13T02:17:38.044Z,80.63
2019-03-13T02:20:08.735Z,80.87
2019-03-13T02:22:37.347Z,79.60
2019-03-13T02:25:08.822Z,80.53
2019-03-13T02:27:37.515Z,79.80
2019-03-13T02:30:23.061Z,80.97
2019-03-13T02:32:51.595Z,80.60
2019-03-13T02:35:20.273Z,79.83
2019-03-13T02:37:49.010Z,78.93
2019-03-13T02:40:17.562Z,78.60
2019-03-13T02:42:45.936Z,79.80
2019-03-13T02:45:15.783Z,80.77
2019-03-13T02:47:44.327Z,77.87
2019-03-13T02:50:15.348Z,79.87
2019-03-13T02:52:43.945Z,81.70
2019-03-13T02:55:12.794Z,80.87
2019-03-13T02:57:41.433Z,83.83
2019-03-13T03:00:37.906Z,79.87
2019-03-13T03:03:08.300Z,79.17
2019-03-13T03:05:36.929Z,77.30
2019-03-13T03:08:05.504Z,80.33
2019-03-13T03:10:34.121Z,79.27
2019-03-13T03:13:03.072Z,78.47
2019-03-13T03:15:31.717Z,79.10
2019-03-13T03:18:00.313Z,80.23
2019-03-13T03:20:28.896Z,79.97
2019-03-13T03:22:57.213Z,81.60
2019-03-13T03:25:25.875Z,80.23
2019-03-13T03:27:54.418Z,79.23
2019-03-13T03:30:23.988Z,77.77
2019-03-13T03:32:52.579Z,78.67
2019-03-13T03:35:21.213Z,79.00
2019-03-13T03:37:49.760Z,77.23
2019-03-13T03:40:22.493Z,78.10
2019-03-13T03:42:48.980Z,79.73
2019-03-13T03:45:17.273Z,78.77
2019-03-13T03:47:45.774Z,78.53
2019-03-13T03:50:15.245Z,76.43
2019-03-13T03:52:43.777Z,78.17
2019-03-13T03:55:13.839Z,78.57
2019-03-13T03:57:42.021Z,80.43
2019-03-13T04:00:13.365Z,78.73
2019-03-13T04:02:42.003Z,77.13
2019-03-13T04:05:10.508Z,79.47
2019-03-13T04:07:39.189Z,78.20
2019-03-13T04:10:14.767Z,77.17
2019-03-13T04:12:43.459Z,78.07
2019-03-13T04:15:16.526Z,77.87
2019-03-13T04:17:45.186Z,77.33
2019-03-13T04:20:15.877Z,78.17
2019-03-13T04:22:44.347Z,78.03
2019-03-13T04:25:27.853Z,79.50
2019-03-13T04:27:56.478Z,80.23
2019-03-13T04:30:25.054Z,78.97
2019-03-13T04:32:53.572Z,78.97
2019-03-13T04:35:22.134Z,80.13
2019-03-13T04:37:51.092Z,80.30
2019-03-13T04:40:19.769Z,77.73
2019-03-13T04:42:48.331Z,79.70
2019-03-13T04:45:16.896Z,79.00
2019-03-13T04:47:45.499Z,78.60
2019-03-13T04:50:15.998Z,80.03
2019-03-13T04:52:44.496Z,80.33
2019-03-13T04:55:16.794Z,79.37
2019-03-13T04:57:45.419Z,78.80
2019-03-13T05:00:21.427Z,80.27
2019-03-13T05:02:50.068Z,79.77
2019-03-13T05:05:33.923Z,78.60
2019-03-13T05:08:02.499Z,80.07
2019-03-13T05:10:31.061Z,80.87
2019-03-13T05:12:59.720Z,82.37
2019-03-13T05:15:28.264Z,78.67
2019-03-13T05:17:56.761Z,78.83
2019-03-13T05:20:25.432Z,79.13
2019-03-13T05:22:53.928Z,80.03
2019-03-13T05:25:22.425Z,78.00
2019-03-13T05:27:51.025Z,80.33
2019-03-13T05:30:19.526Z,77.33
2019-03-13T05:32:48.090Z,77.83
2019-03-13T05:35:16.619Z,78.87
2019-03-13T05:37:45.260Z,79.10
2019-03-13T05:40:13.898Z,76.90
2019-03-13T05:42:42.191Z,78.00
2019-03-13T05:45:10.760Z,77.40
2019-03-13T05:47:39.331Z,77.93
2019-03-13T05:50:08.819Z,76.90
2019-03-13T05:52:37.084Z,77.83
2019-03-13T05:55:06.529Z,76.20
2019-03-13T05:57:35.069Z,75.50
2019-03-13T06:00:08.511Z,75.90
2019-03-13T06:02:37.157Z,76.17
2019-03-13T06:05:07.665Z,77.10
2019-03-13T06:07:36.230Z,76.33
2019-03-13T06:10:09.456Z,74.90
2019-03-13T06:12:37.989Z,77.43
2019-03-13T06:15:11.832Z,77.00
2019-03-13T06:17:40.394Z,77.77
2019-03-13T06:20:12.283Z,75.43
2019-03-13T06:22:40.925Z,75.87
2019-03-13T06:25:11.066Z,76.83
2019-03-13T06:27:39.744Z,76.67
2019-03-13T06:30:19.485Z,76.87
2019-03-13T06:32:47.775Z,78.53
2019-03-13T06:35:16.342Z,78.47
2019-03-13T06:37:44.910Z,78.73
2019-03-13T06:40:15.215Z,80.07
2019-03-13T06:42:43.705Z,80.73
2019-03-13T06:45:15.279Z,83.40
2019-03-13T06:47:43.588Z,82.30
2019-03-13T06:50:20.936Z,82.37
2019-03-13T06:52:50.426Z,81.50
2019-03-13T06:55:18.994Z,80.00
2019-03-13T06:57:47.557Z,79.03
2019-03-13T07:00:23.341Z,82.20
2019-03-13T07:03:18.844Z,78.47
2019-03-13T07:05:52.275Z,78.70
2019-03-13T07:08:37.672Z,78.30
2019-03-13T07:11:18.186Z,77.97
2019-03-13T07:13:48.392Z,79.70
2019-03-13T07:16:21.575Z,78.97
2019-03-13T07:19:08.236Z,81.03
2019-03-13T07:21:38.372Z,79.10
2019-03-13T07:24:25.349Z,79.90
2019-03-13T07:26:58.263Z,79.27
2019-03-13T07:29:34.553Z,78.57
2019-03-13T07:32:04.766Z,80.17
2019-03-13T07:34:43.404Z,78.77
2019-03-13T07:37:21.053Z,77.30
2019-03-13T07:40:07.833Z,77.40
2019-03-13T07:42:37.988Z,80.43
2019-03-13T07:45:12.420Z,79.63
2019-03-13T07:47:48.248Z,81.77
2019-03-13T07:50:24.332Z,80.43
2019-03-13T07:52:54.237Z,98.70
2019-03-13T07:55:34.349Z,82.23
2019-03-13T07:58:06.124Z,84.43
2019-03-13T08:00:36.342Z,81.87
2019-03-13T08:03:09.736Z,79.87
2019-03-13T08:05:42.179Z,102.57
2019-03-13T08:08:30.467Z,82.37
2019-03-13T08:11:09.446Z,82.10
2019-03-13T08:13:42.433Z,79.87
2019-03-13T08:16:12.639Z,81.50
2019-03-13T08:18:45.703Z,83.20
2019-03-13T08:21:28.132Z,83.57
2019-03-13T08:23:58.076Z,81.60
2019-03-13T08:26:28.213Z,83.90
2019-03-13T08:29:07.153Z,101.90
2019-03-13T08:31:55.675Z,83.80
2019-03-13T08:34:34.601Z,81.90
2019-03-13T08:37:20.797Z,82.83
2019-03-13T08:39:50.732Z,87.87
2019-03-13T08:42:30.201Z,82.90
2019-03-13T08:45:06.775Z,58.13
2019-03-13T08:47:42.271Z,8.33
2019-03-13T08:50:15.033Z,5.67
2019-03-13T08:52:45.158Z,7.60
2019-03-13T08:55:15.298Z,12.93
2019-03-13T08:57:48.310Z,28.80
2019-03-13T09:00:27.419Z,21.30
2019-03-13T09:03:00.281Z,24.57
2019-03-13T09:05:42.714Z,2.87
2019-03-13T09:08:21.967Z,3.67
2019-03-13T09:10:55.070Z,4.37
2019-03-13T09:13:25.324Z,2.63
2019-03-13T09:15:55.590Z,4.23
2019-03-13T09:18:40.822Z,7.07
2019-03-13T09:21:11.104Z,3.73
2019-03-13T09:23:57.609Z,3.37
2019-03-13T09:26:27.833Z,5.10
2019-03-13T09:28:57.997Z,3.03
2019-03-13T09:31:30.759Z,3.30
2019-03-13T09:34:03.849Z,4.43
2019-03-13T09:36:33.989Z,3.63
2019-03-13T09:39:06.907Z,3.33
2019-03-13T09:41:37.213Z,3.23
2019-03-13T09:44:19.436Z,42.27
2019-03-13T09:46:49.560Z,56.17
2019-03-13T09:49:34.784Z,39.47
2019-03-13T09:52:21.311Z,6.00
2019-03-13T09:55:07.657Z,3.90
2019-03-13T09:57:54.022Z,85.33
2019-03-13T10:00:44.341Z,84.33
2019-03-13T10:03:29.620Z,85.03
2019-03-13T10:06:16.418Z,83.43
2019-03-13T10:09:03.007Z,81.93
2019-03-13T10:11:36.160Z,82.97
2019-03-13T10:14:05.984Z,83.73
2019-03-13T10:16:39.053Z,86.57
2019-03-13T10:19:25.540Z,83.37
2019-03-13T10:22:01.669Z,85.77
2019-03-13T10:24:40.892Z,90.70
2019-03-13T10:27:13.692Z,85.43
2019-03-13T10:29:43.588Z,83.27
2019-03-13T10:32:16.502Z,84.83
2019-03-13T10:34:46.835Z,86.27
2019-03-13T10:37:29.076Z,84.73
2019-03-13T10:40:11.662Z,83.47
2019-03-13T10:42:51.067Z,86.53
2019-03-13T10:45:21.761Z,82.77
2019-03-13T10:47:55.224Z,84.37
2019-03-13T10:50:41.546Z,82.03
2019-03-13T10:53:11.713Z,80.50
2019-03-13T10:55:41.854Z,84.73
2019-03-13T10:58:12.104Z,84.43
2019-03-13T11:00:49.314Z,80.67
2019-03-13T11:03:34.898Z,79.30
2019-03-13T11:06:05.118Z,83.47
2019-03-13T11:08:38.085Z,85.47
2019-03-13T11:11:23.372Z,85.57
2019-03-13T11:13:56.619Z,88.03
2019-03-13T11:16:43.243Z,86.50
2019-03-13T11:19:31.579Z,81.67
2019-03-13T11:22:01.438Z,81.77
2019-03-13T11:24:34.331Z,83.30
2019-03-13T11:27:13.370Z,85.73
2019-03-13T11:29:49.415Z,87.80
2019-03-13T11:32:19.631Z,88.77
2019-03-13T11:54:54.976Z,88.63
2019-03-13T11:57:25.151Z,83.70
2019-03-13T12:00:01.235Z,85.27
2019-03-13T12:02:35.310Z,84.73
2019-03-13T12:05:46.541Z,83.20
2019-03-13T12:08:19.456Z,83.70
2019-03-13T12:10:52.495Z,83.87
2019-03-13T12:13:41.176Z,85.97
2019-03-13T12:16:20.560Z,85.33
2019-03-13T12:18:59.747Z,84.87
2019-03-13T12:21:33.114Z,84.07
2019-03-13T12:24:09.282Z,85.87
2019-03-13T12:26:39.475Z,85.10
2019-03-13T12:29:18.654Z,83.50
2019-03-13T12:31:54.813Z,85.80
2019-03-13T12:34:24.900Z,85.87
2019-03-13T12:36:55.046Z,85.80
2019-03-13T12:39:27.854Z,86.73
2019-03-13T12:41:58.007Z,84.47
2019-03-13T12:44:36.752Z,84.37
2019-03-13T12:47:23.075Z,84.47
2019-03-13T12:50:05.171Z,81.23
2019-03-13T12:52:38.434Z,80.70
2019-03-13T12:55:22.007Z,82.40
2019-03-13T12:57:52.230Z,83.33
2019-03-13T13:00:22.297Z,81.87
2019-03-13T13:02:54.900Z,80.93
2019-03-13T13:05:41.105Z,82.20
2019-03-13T14:00:11.234Z,83.67
2019-03-13T14:02:39.652Z,83.77
2019-03-13T14:05:08.148Z,83.83
2019-03-13T14:07:36.604Z,81.77
2019-03-13T14:10:07.930Z,81.27
2019-03-13T14:12:36.485Z,82.83
2019-03-13T14:15:12.820Z,81.23
2019-03-13T14:17:41.241Z,86.90
2019-03-13T14:20:11.203Z,81.97
2019-03-13T14:22:39.740Z,84.23
2019-03-13T14:25:12.597Z,82.27
2019-03-13T14:27:41.093Z,83.13
2019-03-13T14:30:23.011Z,82.57
2019-03-13T14:32:51.433Z,83.33
2019-03-13T14:35:20.024Z,83.90
2019-03-13T14:37:48.481Z,83.47
2019-03-13T14:40:18.440Z,85.57
2019-03-13T14:42:46.995Z,84.63
2019-03-13T14:45:17.299Z,92.17
2019-03-13T14:47:45.884Z,86.50
2019-03-13T14:50:15.759Z,85.73
2019-03-13T14:52:44.295Z,84.80
2019-03-13T14:55:16.508Z,84.20
2019-03-13T14:57:44.984Z,84.43
2019-03-13T15:00:23.854Z,85.13
2019-03-13T15:02:52.267Z,84.50
2019-03-13T15:05:20.676Z,84.47
2019-03-13T15:07:50.307Z,87.37
2019-03-13T15:10:22.421Z,83.80
2019-03-13T15:12:50.996Z,83.80
2019-03-13T15:15:22.813Z,90.07
2019-03-13T15:17:53.177Z,85.17
2019-03-13T15:20:25.928Z,83.93
2019-03-13T15:22:54.522Z,84.77
2019-03-13T15:25:23.173Z,84.97
2019-03-13T15:27:51.799Z,84.47
2019-03-13T15:30:23.603Z,87.70
2019-03-13T15:32:52.179Z,85.33
2019-03-13T15:35:20.740Z,85.33
2019-03-13T15:37:49.451Z,82.10
2019-03-13T15:40:18.625Z,70.00
2019-03-13T15:42:47.569Z,61.57
2019-03-13T15:45:24.885Z,58.30
2019-03-13T15:47:53.476Z,58.90
2019-03-13T15:50:22.054Z,58.70
2019-03-13T15:52:50.763Z,69.63
2019-03-13T15:55:19.833Z,67.60
2019-03-13T15:57:48.322Z,65.80
2019-03-13T16:00:24.674Z,60.23
2019-03-13T16:02:55.662Z,51.20
2019-03-13T16:05:23.517Z,46.00
2019-03-13T16:07:52.041Z,39.03
2019-03-13T16:10:21.190Z,43.07
2019-03-13T16:12:50.000Z,41.37
2019-03-13T16:15:36.045Z,55.30
2019-03-13T16:18:04.905Z,63.40
2019-03-13T16:20:33.462Z,60.73
2019-03-13T16:23:02.759Z,37.40
2019-03-13T16:25:31.257Z,18.60
2019-03-13T16:27:59.957Z,21.70
2019-03-13T16:30:42.518Z,41.93
2019-03-13T16:33:11.090Z,41.83
2019-03-13T16:35:39.751Z,47.87
2019-03-13T16:38:08.348Z,49.53
2019-03-13T16:40:36.974Z,36.97
2019-03-13T16:43:05.552Z,21.07
2019-03-13T16:45:34.067Z,7.13
2019-03-13T16:48:02.811Z,7.03
2019-03-13T16:50:33.520Z,6.20
2019-03-13T16:53:02.135Z,10.60
2019-03-13T16:55:31.055Z,7.90
2019-03-13T16:57:59.622Z,53.20
2019-03-13T17:00:29.420Z,61.60
2019-03-13T17:02:58.113Z,82.50
2019-03-13T17:05:26.531Z,85.00
2019-03-13T17:07:55.451Z,85.70
2019-03-13T17:10:26.194Z,91.37
2019-03-13T17:12:55.083Z,105.23
2019-03-13T17:15:24.393Z,95.60
2019-03-13T17:17:53.369Z,89.83
2019-03-13T17:20:28.259Z,89.63
2019-03-13T17:23:33.887Z,91.47
2019-03-13T17:26:02.639Z,88.70
2019-03-13T17:28:31.455Z,89.97
2019-03-13T17:30:59.943Z,89.07
2019-03-13T17:33:28.478Z,88.03
2019-03-13T17:35:57.041Z,92.90
2019-03-13T17:38:28.749Z,93.80
2019-03-13T17:40:59.394Z,92.40
2019-03-13T17:43:38.595Z,95.33
2019-03-13T17:45:57.941Z,93.47
2019-03-13T17:48:26.567Z,82.97
2019-03-13T17:50:55.104Z,93.50
2019-03-13T17:53:23.885Z,96.17
2019-03-13T17:55:52.523Z,97.03
2019-03-13T17:58:22.678Z,93.37
2019-03-13T18:00:53.220Z,99.93
2019-03-13T18:03:23.399Z,91.97
2019-03-13T18:05:52.162Z,106.93
2019-03-13T18:08:20.753Z,94.07
2019-03-13T18:10:49.482Z,93.17
2019-03-13T18:13:18.212Z,97.73
2019-03-13T18:15:47.411Z,87.23
2019-03-13T18:18:16.012Z,80.00
2019-03-13T18:20:44.606Z,80.43
2019-03-13T18:23:13.242Z,88.20
2019-03-13T18:25:42.233Z,90.83
2019-03-13T18:28:10.865Z,89.03
2019-03-13T18:30:39.770Z,89.57
2019-03-13T18:33:08.421Z,90.30
2019-03-13T18:35:36.993Z,90.30
2019-03-13T18:38:05.580Z,90.00
2019-03-13T18:40:34.168Z,93.80
2019-03-13T18:43:03.313Z,91.03
2019-03-13T18:45:36.088Z,92.87
2019-03-13T18:48:05.593Z,92.73
2019-03-13T18:50:34.161Z,92.67
2019-03-13T18:53:02.649Z,91.10
2019-03-13T18:55:32.757Z,94.83
2019-03-13T18:58:01.559Z,93.23
2019-03-13T19:00:34.937Z,87.60
2019-03-13T19:03:03.502Z,92.20
2019-03-13T19:05:33.962Z,79.90
2019-03-13T19:08:02.461Z,72.50
2019-03-13T19:10:34.438Z,76.83
2019-03-13T19:13:03.047Z,68.80
2019-03-13T19:15:40.157Z,66.17
2019-03-13T19:18:08.040Z,58.43
2019-03-13T19:20:36.615Z,68.33
2019-03-13T19:23:05.247Z,49.80
2019-03-13T19:25:33.817Z,47.83
2019-03-13T19:28:04.744Z,50.23
2019-03-13T19:30:37.360Z,53.77
2019-03-13T19:33:04.341Z,8.23
2019-03-13T19:35:33.293Z,19.23
2019-03-13T19:38:14.599Z,48.57
2019-03-13T19:40:44.316Z,64.97
2019-03-13T19:43:13.040Z,36.43
2019-03-13T19:45:45.623Z,40.03
2019-03-13T19:48:14.952Z,10.70
2019-03-13T19:50:45.802Z,65.33
2019-03-13T19:53:18.888Z,51.10
2019-03-13T19:55:47.548Z,48.90
2019-03-13T19:58:16.177Z,66.53
2019-03-13T20:00:44.883Z,51.67
2019-03-13T20:03:15.750Z,30.03
2019-03-13T20:05:46.206Z,8.10
2019-03-13T20:08:14.778Z,43.40
2019-03-13T20:10:43.253Z,61.37
2019-03-13T20:13:15.131Z,28.83
2019-03-13T20:15:43.819Z,20.47
2019-03-13T20:18:12.363Z,9.30
2019-03-13T20:20:40.996Z,7.67
2019-03-13T20:23:14.308Z,10.37
2019-03-13T20:25:44.077Z,7.73
2019-03-13T20:28:13.464Z,11.33
2019-03-13T20:30:42.113Z,50.83
2019-03-13T20:33:12.184Z,46.60
2019-03-13T20:35:40.730Z,8.40
2019-03-13T20:38:09.313Z,33.43
2019-03-13T20:40:38.071Z,11.47
2019-03-13T20:43:06.721Z,16.17
2019-03-13T20:45:35.304Z,6.87
2019-03-13T20:48:06.632Z,9.30
2019-03-13T20:50:37.656Z,7.20
2019-03-13T20:53:05.464Z,7.83
2019-03-13T20:55:34.106Z,7.40
2019-03-13T20:58:02.664Z,8.77
2019-03-13T21:00:34.410Z,10.00
2019-03-13T21:03:01.327Z,37.60
2019-03-13T21:05:29.814Z,9.83
2019-03-13T21:07:59.497Z,56.03
2019-03-13T21:10:28.111Z,56.20
2019-03-13T21:12:56.666Z,55.53
2019-03-13T21:15:26.381Z,51.27
2019-03-13T21:17:54.873Z,55.30
2019-03-13T21:20:24.999Z,37.07
2019-03-13T21:22:53.571Z,31.17
2019-03-13T21:25:26.445Z,6.73
2019-03-13T21:27:55.723Z,5.93
2019-03-13T21:30:28.210Z,7.50
2019-03-13T21:32:57.176Z,7.10
2019-03-13T21:35:25.836Z,7.13
2019-03-13T21:37:54.434Z,5.03
2019-03-13T21:40:24.104Z,5.90
2019-03-13T21:42:54.592Z,24.43
2019-03-13T21:45:23.316Z,5.30
2019-03-13T21:47:53.628Z,4.07
2019-03-13T21:50:22.114Z,7.97
2019-03-13T21:52:50.633Z,4.70
2019-03-13T21:55:19.501Z,4.20
2019-03-13T21:57:51.394Z,4.30
2019-03-13T22:00:25.612Z,7.10
2019-03-13T22:02:54.073Z,6.50
2019-03-13T22:05:26.278Z,4.83
2019-03-13T22:07:53.014Z,4.27
2019-03-13T22:10:21.555Z,6.90
2019-03-13T22:12:50.048Z,4.47
2019-03-13T22:15:19.644Z,4.27
2019-03-13T22:17:49.496Z,4.13
2019-03-13T22:20:18.482Z,4.27
2019-03-13T22:22:47.454Z,4.40
2019-03-13T22:25:18.163Z,4.47
2019-03-13T22:27:46.647Z,4.43
2019-03-13T22:30:28.420Z,4.70
2019-03-13T22:32:55.193Z,4.63
2019-03-13T22:35:23.667Z,4.63
2019-03-13T22:37:52.260Z,4.13
2019-03-13T22:40:20.820Z,4.00
2019-03-13T22:42:49.391Z,5.17
2019-03-13T22:45:19.093Z,6.23
2019-03-13T22:47:47.913Z,4.47
2019-03-13T22:50:20.609Z,3.20
2019-03-13T22:52:49.148Z,4.63
2019-03-13T22:55:17.768Z,4.47
2019-03-13T22:57:46.386Z,3.10
2019-03-13T23:00:52.663Z,4.87
2019-03-13T23:03:22.193Z,3.50
2019-03-13T23:05:50.669Z,4.00
2019-03-13T23:08:19.185Z,3.80
2019-03-13T23:10:47.691Z,3.83
2019-03-13T23:13:17.416Z,4.23
2019-03-13T23:15:46.464Z,4.60
2019-03-13T23:18:17.949Z,3.73
2019-03-13T23:20:46.714Z,3.63
2019-03-13T23:23:16.308Z,3.93
2019-03-13T23:25:44.799Z,4.07
2019-03-13T23:28:13.285Z,3.63
2019-03-13T23:30:41.888Z,3.80
2019-03-13T23:33:10.368Z,4.43
2019-03-13T23:35:38.782Z,3.70
2019-03-13T23:38:07.368Z,4.93
2019-03-13T23:40:35.929Z,3.37
2019-03-13T23:43:04.744Z,4.40
2019-03-13T23:45:33.409Z,3.60
2019-03-13T23:48:01.883Z,3.53
2019-03-13T23:50:30.366Z,3.93
2019-03-13T23:52:58.950Z,3.50
2019-03-13T23:55:27.362Z,4.67
2019-03-13T23:57:55.974Z,3.57
